VOI043 MMMX-MMQT
Flight info
| Callsign | VOI043 |
|---|---|
| Flight time | 0h 32m |
| Altitude | 24000 |
| Route | SEBO3A/05L SEBON UT144 QET |
| Aircraft | A320/M-SDE3FGHIRWY/LB1 |
Departure
| Time | 2026-04-21 03:26 |
|---|---|
| Airport | Mexico City Benito Juárez International Airport (MMMX) |
Arrival
| Time | 2026-04-21 03:58 |
|---|---|
| Airport | Querétaro Intercontinental Airport (MMQT) |
| Time | Latitude | Longitude | Altitude | Speed | Heading |
|---|---|---|---|---|---|
| 2026-04-21 03:07 | 19.43294 | -99.08515 | 7275 ft | 0 kts | 328° |
| 2026-04-21 03:19 | 19.43289 | -99.08512 | 7276 ft | 4 kts | 327° |
| 2026-04-21 03:19 | 19.43266 | -99.08497 | 7303 ft | 4 kts | 326° |
| 2026-04-21 03:20 | 19.43244 | -99.08481 | 7304 ft | 4 kts | 323° |
| 2026-04-21 03:20 | 19.43229 | -99.08467 | 7303 ft | 2 kts | 299° |
| 2026-04-21 03:20 | 19.43225 | -99.08456 | 7304 ft | 2 kts | 253° |
| 2026-04-21 03:20 | 19.43229 | -99.08445 | 7303 ft | 2 kts | 242° |
| 2026-04-21 03:21 | 19.43232 | -99.08438 | 7303 ft | 0 kts | 237° |
| 2026-04-21 03:21 | 19.43232 | -99.08439 | 7303 ft | 0 kts | 237° |
| 2026-04-21 03:22 | 19.43226 | -99.08449 | 7303 ft | 5 kts | 237° |
| 2026-04-21 03:22 | 19.43198 | -99.08495 | 7303 ft | 10 kts | 239° |
| 2026-04-21 03:22 | 19.43159 | -99.08564 | 7303 ft | 12 kts | 239° |
| 2026-04-21 03:22 | 19.43111 | -99.08653 | 7303 ft | 16 kts | 240° |
| 2026-04-21 03:23 | 19.43054 | -99.08759 | 7303 ft | 17 kts | 239° |
| 2026-04-21 03:23 | 19.42989 | -99.08874 | 7303 ft | 19 kts | 239° |
| 2026-04-21 03:23 | 19.42932 | -99.08975 | 7303 ft | 13 kts | 239° |
| 2026-04-21 03:23 | 19.42860 | -99.09051 | 7303 ft | 17 kts | 202° |
| 2026-04-21 03:24 | 19.42776 | -99.09048 | 7303 ft | 10 kts | 110° |
| 2026-04-21 03:24 | 19.42792 | -99.08991 | 7303 ft | 0 kts | 57° |
| 2026-04-21 03:24 | 19.42798 | -99.08980 | 7303 ft | 3 kts | 57° |
| 2026-04-21 03:24 | 19.42813 | -99.08955 | 7303 ft | 5 kts | 58° |
| 2026-04-21 03:25 | 19.42830 | -99.08926 | 7303 ft | 0 kts | 59° |
| 2026-04-21 03:25 | 19.42834 | -99.08918 | 7303 ft | 2 kts | 60° |
| 2026-04-21 03:25 | 19.42865 | -99.08861 | 7303 ft | 33 kts | 60° |
| 2026-04-21 03:25 | 19.43126 | -99.08392 | 7301 ft | 111 kts | 59° |
| 2026-04-21 03:26 | 19.43626 | -99.07507 | 7307 ft | 167 kts | 59° |
| 2026-04-21 03:26 | 19.44256 | -99.06392 | 7931 ft | 177 kts | 59° |
| 2026-04-21 03:26 | 19.44885 | -99.05256 | 8861 ft | 180 kts | 60° |
| 2026-04-21 03:26 | 19.45521 | -99.04098 | 9367 ft | 187 kts | 58° |
| 2026-04-21 03:27 | 19.46226 | -99.02847 | 9668 ft | 209 kts | 58° |
| 2026-04-21 03:27 | 19.47016 | -99.01457 | 9969 ft | 232 kts | 58° |
| 2026-04-21 03:27 | 19.47883 | -98.99933 | 10406 ft | 247 kts | 58° |
| 2026-04-21 03:27 | 19.48746 | -98.98409 | 11351 ft | 242 kts | 59° |
| 2026-04-21 03:28 | 19.49545 | -98.96819 | 12261 ft | 242 kts | 74° |
| 2026-04-21 03:28 | 19.49532 | -98.95086 | 13067 ft | 244 kts | 111° |
| 2026-04-21 03:28 | 19.48499 | -98.93684 | 13909 ft | 247 kts | 148° |
| 2026-04-21 03:28 | 19.46848 | -98.93221 | 14693 ft | 253 kts | 184° |
| 2026-04-21 03:29 | 19.45216 | -98.93902 | 15452 ft | 259 kts | 219° |
| 2026-04-21 03:29 | 19.44005 | -98.95363 | 16258 ft | 263 kts | 235° |
| 2026-04-21 03:29 | 19.43041 | -98.96991 | 17043 ft | 266 kts | 239° |
| 2026-04-21 03:29 | 19.42086 | -98.98683 | 17829 ft | 269 kts | 238° |
| 2026-04-21 03:30 | 19.41049 | -99.00414 | 18227 ft | 290 kts | 236° |
| 2026-04-21 03:30 | 19.39851 | -99.02263 | 18607 ft | 308 kts | 234° |
| 2026-04-21 03:30 | 19.38575 | -99.04108 | 19180 ft | 314 kts | 234° |
| 2026-04-21 03:30 | 19.37464 | -99.06120 | 19828 ft | 318 kts | 247° |
| 2026-04-21 03:31 | 19.36777 | -99.08360 | 20146 ft | 334 kts | 261° |
| 2026-04-21 03:31 | 19.36452 | -99.10589 | 20549 ft | 343 kts | 262° |
| 2026-04-21 03:31 | 19.36095 | -99.13106 | 21153 ft | 348 kts | 262° |
| 2026-04-21 03:31 | 19.35728 | -99.15653 | 21796 ft | 351 kts | 262° |
| 2026-04-21 03:32 | 19.35350 | -99.18213 | 22434 ft | 354 kts | 262° |
| 2026-04-21 03:32 | 19.34966 | -99.20802 | 23073 ft | 357 kts | 262° |
| 2026-04-21 03:32 | 19.34580 | -99.23409 | 23535 ft | 360 kts | 262° |
| 2026-04-21 03:32 | 19.34195 | -99.26024 | 23785 ft | 360 kts | 262° |
| 2026-04-21 03:33 | 19.33810 | -99.28645 | 24003 ft | 360 kts | 262° |
| 2026-04-21 03:33 | 19.33423 | -99.31272 | 24225 ft | 362 kts | 262° |
| 2026-04-21 03:33 | 19.33034 | -99.33917 | 24337 ft | 370 kts | 262° |
| 2026-04-21 03:33 | 19.32665 | -99.36688 | 24385 ft | 390 kts | 266° |
| 2026-04-21 03:34 | 19.32681 | -99.39611 | 24412 ft | 402 kts | 276° |
| 2026-04-21 03:34 | 19.33205 | -99.42532 | 24437 ft | 406 kts | 286° |
| 2026-04-21 03:34 | 19.34030 | -99.45419 | 24469 ft | 417 kts | 287° |
| 2026-04-21 03:34 | 19.34889 | -99.48425 | 24485 ft | 435 kts | 287° |
| 2026-04-21 03:35 | 19.35786 | -99.51579 | 24487 ft | 450 kts | 287° |
| 2026-04-21 03:35 | 19.36700 | -99.54804 | 24483 ft | 463 kts | 287° |
| 2026-04-21 03:35 | 19.37615 | -99.58111 | 24487 ft | 474 kts | 284° |
| 2026-04-21 03:35 | 19.38085 | -99.61600 | 24488 ft | 483 kts | 272° |
| 2026-04-21 03:36 | 19.37949 | -99.65168 | 24485 ft | 486 kts | 266° |
| 2026-04-21 03:36 | 19.37720 | -99.68744 | 24457 ft | 488 kts | 266° |
| 2026-04-21 03:36 | 19.37491 | -99.72331 | 24426 ft | 488 kts | 266° |
| 2026-04-21 03:36 | 19.37265 | -99.75911 | 24396 ft | 487 kts | 266° |
| 2026-04-21 03:37 | 19.37043 | -99.79494 | 24361 ft | 487 kts | 266° |
| 2026-04-21 03:37 | 19.36823 | -99.83066 | 24328 ft | 486 kts | 266° |
| 2026-04-21 03:37 | 19.36605 | -99.86640 | 24293 ft | 486 kts | 266° |
| 2026-04-21 03:37 | 19.36385 | -99.90209 | 24260 ft | 486 kts | 266° |
| 2026-04-21 03:38 | 19.36160 | -99.93772 | 24220 ft | 487 kts | 266° |
| 2026-04-21 03:38 | 19.35929 | -99.97376 | 24210 ft | 490 kts | 266° |
| 2026-04-21 03:38 | 19.35695 | -100.00979 | 24203 ft | 491 kts | 266° |
| 2026-04-21 03:38 | 19.35464 | -100.04537 | 24198 ft | 491 kts | 266° |
| 2026-04-21 03:39 | 19.35482 | -100.08139 | 24194 ft | 490 kts | 278° |
| 2026-04-21 03:39 | 19.36402 | -100.11602 | 24189 ft | 490 kts | 294° |
| 2026-04-21 03:39 | 19.38215 | -100.14637 | 24187 ft | 491 kts | 310° |
| 2026-04-21 03:39 | 19.40793 | -100.16993 | 24186 ft | 492 kts | 327° |
| 2026-04-21 03:40 | 19.43733 | -100.18857 | 24187 ft | 492 kts | 329° |
| 2026-04-21 03:40 | 19.46687 | -100.20689 | 24181 ft | 492 kts | 329° |
| 2026-04-21 03:40 | 19.49642 | -100.22517 | 24182 ft | 492 kts | 329° |
| 2026-04-21 03:40 | 19.52594 | -100.24345 | 24180 ft | 491 kts | 329° |
| 2026-04-21 03:41 | 19.55542 | -100.26169 | 24180 ft | 491 kts | 330° |
| 2026-04-21 03:41 | 19.58675 | -100.27617 | 24178 ft | 492 kts | 342° |
| 2026-04-21 03:41 | 19.62040 | -100.28284 | 24176 ft | 494 kts | 355° |
| 2026-04-21 03:41 | 19.65479 | -100.28203 | 24177 ft | 495 kts | 2° |
| 2026-04-21 03:42 | 19.68921 | -100.27975 | 24181 ft | 495 kts | 2° |
| 2026-04-21 03:42 | 19.72357 | -100.27746 | 24179 ft | 495 kts | 2° |
| 2026-04-21 03:42 | 19.75798 | -100.27517 | 24183 ft | 495 kts | 2° |
| 2026-04-21 03:42 | 19.79234 | -100.27291 | 24185 ft | 495 kts | 2° |
| 2026-04-21 03:43 | 19.82672 | -100.27065 | 24188 ft | 495 kts | 2° |
| 2026-04-21 03:43 | 19.86112 | -100.26838 | 24188 ft | 495 kts | 2° |
| 2026-04-21 03:43 | 19.89550 | -100.26613 | 24187 ft | 494 kts | 2° |
| 2026-04-21 03:43 | 19.92983 | -100.26387 | 24188 ft | 494 kts | 2° |
| 2026-04-21 03:44 | 19.96390 | -100.26162 | 24196 ft | 480 kts | 2° |
| 2026-04-21 03:44 | 19.99625 | -100.25944 | 24210 ft | 453 kts | 2° |
| 2026-04-21 03:44 | 20.02685 | -100.25734 | 24205 ft | 429 kts | 2° |
| 2026-04-21 03:44 | 20.05586 | -100.25485 | 23702 ft | 410 kts | 4° |
| 2026-04-21 03:45 | 20.08367 | -100.25193 | 23115 ft | 392 kts | 4° |
| 2026-04-21 03:45 | 20.11016 | -100.24883 | 22631 ft | 374 kts | 5° |
| 2026-04-21 03:45 | 20.13520 | -100.24582 | 22424 ft | 350 kts | 5° |
| 2026-04-21 03:45 | 20.15866 | -100.24304 | 22301 ft | 327 kts | 5° |
| 2026-04-21 03:46 | 20.18054 | -100.24055 | 22174 ft | 306 kts | 4° |
| 2026-04-21 03:46 | 20.20101 | -100.23829 | 22048 ft | 287 kts | 4° |
| 2026-04-21 03:46 | 20.22031 | -100.23621 | 21833 ft | 271 kts | 4° |
| 2026-04-21 03:46 | 20.23878 | -100.23425 | 21238 ft | 265 kts | 4° |
| 2026-04-21 03:47 | 20.25707 | -100.23231 | 20589 ft | 263 kts | 5° |
| 2026-04-21 03:47 | 20.27516 | -100.23038 | 19985 ft | 260 kts | 5° |
| 2026-04-21 03:47 | 20.29310 | -100.22845 | 19399 ft | 258 kts | 5° |
| 2026-04-21 03:47 | 20.31082 | -100.22657 | 18825 ft | 255 kts | 6° |
| 2026-04-21 03:48 | 20.32842 | -100.22471 | 18228 ft | 253 kts | 6° |
| 2026-04-21 03:48 | 20.34583 | -100.22286 | 17645 ft | 250 kts | 6° |
| 2026-04-21 03:48 | 20.36316 | -100.22103 | 17262 ft | 250 kts | 6° |
| 2026-04-21 03:48 | 20.38051 | -100.22180 | 16903 ft | 250 kts | 350° |
| 2026-04-21 03:49 | 20.39706 | -100.22753 | 16469 ft | 252 kts | 335° |
| 2026-04-21 03:49 | 20.41163 | -100.23793 | 15980 ft | 253 kts | 319° |
| 2026-04-21 03:49 | 20.42289 | -100.25213 | 15588 ft | 251 kts | 303° |
| 2026-04-21 03:49 | 20.43028 | -100.26889 | 15205 ft | 250 kts | 291° |
| 2026-04-21 03:50 | 20.43700 | -100.28592 | 14807 ft | 249 kts | 296° |
| 2026-04-21 03:50 | 20.44496 | -100.30197 | 14413 ft | 247 kts | 302° |
| 2026-04-21 03:50 | 20.45425 | -100.31728 | 14002 ft | 245 kts | 307° |
| 2026-04-21 03:50 | 20.46465 | -100.33164 | 13573 ft | 244 kts | 311° |
| 2026-04-21 03:51 | 20.47604 | -100.34487 | 13180 ft | 242 kts | 316° |
| 2026-04-21 03:51 | 20.48840 | -100.35689 | 12802 ft | 239 kts | 322° |
| 2026-04-21 03:51 | 20.50162 | -100.36758 | 12449 ft | 237 kts | 326° |
| 2026-04-21 03:51 | 20.51546 | -100.37705 | 12099 ft | 235 kts | 331° |
| 2026-04-21 03:52 | 20.52985 | -100.38530 | 11750 ft | 234 kts | 335° |
| 2026-04-21 03:52 | 20.54466 | -100.39224 | 11410 ft | 232 kts | 340° |
| 2026-04-21 03:52 | 20.55987 | -100.39786 | 11063 ft | 231 kts | 345° |
| 2026-04-21 03:52 | 20.57536 | -100.40210 | 10727 ft | 229 kts | 349° |
| 2026-04-21 03:53 | 20.59103 | -100.40498 | 10406 ft | 228 kts | 354° |
| 2026-04-21 03:53 | 20.60676 | -100.40511 | 10329 ft | 227 kts | 11° |
| 2026-04-21 03:53 | 20.62180 | -100.39955 | 10247 ft | 226 kts | 31° |
| 2026-04-21 03:53 | 20.63388 | -100.38905 | 10149 ft | 225 kts | 51° |
| 2026-04-21 03:54 | 20.64227 | -100.37506 | 9824 ft | 223 kts | 68° |
| 2026-04-21 03:54 | 20.64524 | -100.36465 | 9617 ft | 221 kts | 80° |
| 2026-04-21 03:54 | 20.64569 | -100.34843 | 9333 ft | 219 kts | 98° |
| 2026-04-21 03:54 | 20.64188 | -100.32735 | 8945 ft | 218 kts | 102° |
| 2026-04-21 03:55 | 20.63993 | -100.31672 | 8742 ft | 214 kts | 102° |
| 2026-04-21 03:55 | 20.63718 | -100.30168 | 8454 ft | 198 kts | 101° |
| 2026-04-21 03:55 | 20.63389 | -100.28364 | 8135 ft | 170 kts | 101° |
| 2026-04-21 03:55 | 20.63177 | -100.27199 | 7895 ft | 152 kts | 101° |
| 2026-04-21 03:56 | 20.63044 | -100.26471 | 7778 ft | 145 kts | 100° |
| 2026-04-21 03:56 | 20.62865 | -100.25429 | 7585 ft | 139 kts | 97° |
| 2026-04-21 03:56 | 20.62704 | -100.24420 | 7354 ft | 138 kts | 97° |
| 2026-04-21 03:56 | 20.62545 | -100.23414 | 7102 ft | 139 kts | 97° |
| 2026-04-21 03:57 | 20.62393 | -100.22387 | 6859 ft | 142 kts | 97° |
| 2026-04-21 03:57 | 20.62233 | -100.21331 | 6578 ft | 145 kts | 99° |
| 2026-04-21 03:57 | 20.62050 | -100.20255 | 6365 ft | 148 kts | 100° |
| 2026-04-21 03:57 | 20.61866 | -100.19258 | 6305 ft | 116 kts | 101° |
| 2026-04-21 03:58 | 20.61746 | -100.18591 | 6305 ft | 67 kts | 99° |
| 2026-04-21 03:58 | 20.61683 | -100.18266 | 6305 ft | 33 kts | 102° |
| 2026-04-21 03:58 | 20.61659 | -100.18025 | 6305 ft | 32 kts | 79° |
| 2026-04-21 03:58 | 20.61713 | -100.17835 | 6305 ft | 21 kts | 72° |
| 2026-04-21 03:59 | 20.61758 | -100.17765 | 6305 ft | 5 kts | 334° |
| 2026-04-21 03:59 | 20.61771 | -100.17821 | 6307 ft | 11 kts | 281° |
| 2026-04-21 03:59 | 20.61785 | -100.17899 | 6305 ft | 11 kts | 281° |
| 2026-04-21 04:00 | 20.61819 | -100.18095 | 6305 ft | 21 kts | 282° |
| 2026-04-21 04:00 | 20.61848 | -100.18258 | 6306 ft | 23 kts | 280° |
| 2026-04-21 04:00 | 20.61868 | -100.18376 | 6305 ft | 16 kts | 281° |
| 2026-04-21 04:00 | 20.61892 | -100.18501 | 6305 ft | 18 kts | 281° |
| 2026-04-21 04:01 | 20.61918 | -100.18637 | 6306 ft | 20 kts | 281° |
| 2026-04-21 04:01 | 20.61985 | -100.18701 | 6306 ft | 13 kts | 17° |
| 2026-04-21 04:01 | 20.62081 | -100.18673 | 6305 ft | 16 kts | 9° |
| 2026-04-21 04:01 | 20.62166 | -100.18663 | 6305 ft | 13 kts | 11° |
| 2026-04-21 04:02 | 20.62186 | -100.18659 | 6305 ft | 0 kts | 11° |